createdAt,value
2022-08-17T00:01:00.494Z,20.36
2022-08-17T00:02:06.562Z,20.36
2022-08-17T00:03:25.657Z,20.33
2022-08-17T00:04:27.452Z,20.32
2022-08-17T00:05:36.868Z,20.31
2022-08-17T00:06:41.241Z,20.31
2022-08-17T00:07:43.044Z,20.31
2022-08-17T00:08:54.688Z,20.30
2022-08-17T00:09:57.642Z,20.30
2022-08-17T00:11:02.107Z,20.31
2022-08-17T00:12:43.210Z,20.32
2022-08-17T00:13:34.222Z,20.32
2022-08-17T00:14:36.215Z,20.34
2022-08-17T00:15:40.775Z,20.36
2022-08-17T00:16:51.018Z,20.38
2022-08-17T00:18:01.942Z,20.39
2022-08-17T00:19:08.412Z,20.44
2022-08-17T00:20:13.585Z,20.46
2022-08-17T00:21:23.928Z,20.52
2022-08-17T00:22:34.993Z,20.48
2022-08-17T00:23:38.125Z,20.60
2022-08-17T00:24:42.940Z,20.63
2022-08-17T00:25:45.820Z,20.66
2022-08-17T00:26:50.210Z,20.72
2022-08-17T00:27:52.018Z,20.74
2022-08-17T00:28:58.642Z,20.79
2022-08-17T00:30:00.456Z,20.83
2022-08-17T00:31:04.924Z,20.88
2022-08-17T00:33:22.799Z,20.90
2022-08-17T00:33:32.197Z,20.94
2022-08-17T00:34:34.359Z,20.97
2022-08-17T00:35:38.869Z,20.99
2022-08-17T00:37:01.464Z,20.99
2022-08-17T00:38:05.113Z,21.03
2022-08-17T00:39:10.719Z,21.03
2022-08-17T00:40:13.509Z,21.04
2022-08-17T00:41:19.348Z,21.03
2022-08-17T00:42:22.229Z,21.05
2022-08-17T00:43:37.534Z,21.02
2022-08-17T00:44:39.424Z,21.02
2022-08-17T00:45:44.170Z,21.02
2022-08-17T00:46:47.929Z,21.01
2022-08-17T00:47:52.351Z,20.99
2022-08-17T00:48:54.220Z,20.97
2022-08-17T00:49:58.645Z,20.94
2022-08-17T00:51:15.727Z,20.93
2022-08-17T00:52:20.639Z,20.90
2022-08-17T00:53:25.250Z,20.86
2022-08-17T00:54:27.245Z,20.85
2022-08-17T00:55:31.659Z,20.82
2022-08-17T00:56:34.632Z,20.81
2022-08-17T00:57:43.406Z,20.79
2022-08-17T00:58:47.978Z,20.77
2022-08-17T01:00:01.588Z,20.76
2022-08-17T01:01:08.686Z,20.74
2022-08-17T01:02:11.086Z,20.71
2022-08-17T01:03:21.665Z,20.69
2022-08-17T01:04:23.585Z,20.66
2022-08-17T01:05:28.797Z,20.64
2022-08-17T01:06:30.736Z,20.59
2022-08-17T01:07:35.299Z,20.59
2022-08-17T01:08:40.614Z,20.56
2022-08-17T01:09:45.310Z,20.54
2022-08-17T01:10:57.598Z,20.51
2022-08-17T01:12:07.262Z,20.47
2022-08-17T01:13:10.813Z,20.46
2022-08-17T01:14:15.404Z,20.44
2022-08-17T01:15:17.333Z,20.42
2022-08-17T01:16:24.464Z,20.41
2022-08-17T01:17:27.416Z,20.39
2022-08-17T01:18:31.932Z,20.38
2022-08-17T01:19:36.075Z,20.33
2022-08-17T01:20:48.150Z,20.32
2022-08-17T01:21:51.727Z,20.29
2022-08-17T01:22:56.134Z,20.27
2022-08-17T01:23:58.120Z,20.25
2022-08-17T01:25:03.418Z,20.23
2022-08-17T01:26:06.793Z,20.21
2022-08-17T01:27:11.445Z,20.19
2022-08-17T01:28:13.359Z,20.17
2022-08-17T01:29:37.765Z,20.16
2022-08-17T01:30:59.034Z,20.15
2022-08-17T01:32:05.640Z,20.13
2022-08-17T01:33:11.464Z,20.12
2022-08-17T01:34:17.067Z,20.11
2022-08-17T01:35:18.935Z,20.09
2022-08-17T01:36:23.674Z,20.09
2022-08-17T01:37:30.022Z,20.08
2022-08-17T01:38:34.429Z,20.07
2022-08-17T01:39:42.018Z,20.06
2022-08-17T01:40:48.538Z,20.05
2022-08-17T01:42:04.552Z,20.03
2022-08-17T01:43:13.488Z,20.01
2022-08-17T01:44:15.327Z,20.01
2022-08-17T01:45:24.646Z,20.00
2022-08-17T01:46:29.309Z,19.98
2022-08-17T01:47:36.073Z,19.97
2022-08-17T01:48:38.940Z,19.97
2022-08-17T01:49:43.574Z,19.96
2022-08-17T01:50:45.985Z,19.96
2022-08-17T01:51:50.991Z,19.96
2022-08-17T01:52:54.187Z,19.97
2022-08-17T01:53:59.894Z,19.98
2022-08-17T01:55:01.723Z,19.97
2022-08-17T01:56:10.310Z,19.98
2022-08-17T01:57:13.440Z,20.00
2022-08-17T01:58:17.931Z,19.98
2022-08-17T01:59:19.883Z,19.99
2022-08-17T02:00:24.393Z,19.98
2022-08-17T02:01:28.849Z,19.98
2022-08-17T02:02:33.299Z,19.97
2022-08-17T02:03:35.646Z,19.95
2022-08-17T02:04:40.266Z,19.93
2022-08-17T02:05:42.056Z,19.89
2022-08-17T02:06:54.225Z,19.86
2022-08-17T02:08:00.566Z,19.82
2022-08-17T02:09:05.619Z,19.80
2022-08-17T02:10:19.781Z,19.78
2022-08-17T02:11:24.622Z,19.73
2022-08-17T02:12:38.080Z,19.70
2022-08-17T02:13:44.375Z,19.67
2022-08-17T02:14:46.406Z,19.66
2022-08-17T02:15:50.810Z,19.64
2022-08-17T02:16:53.155Z,19.64
2022-08-17T02:17:57.665Z,19.62
2022-08-17T02:19:01.606Z,19.62
2022-08-17T02:20:06.590Z,19.60
2022-08-17T02:21:08.458Z,19.60
2022-08-17T02:22:12.828Z,19.58
2022-08-17T02:23:14.668Z,19.57
2022-08-17T02:25:01.252Z,19.56
2022-08-17T02:25:43.451Z,19.54
2022-08-17T02:26:48.805Z,19.45
2022-08-17T02:27:50.611Z,19.52
2022-08-17T02:28:54.992Z,19.51
2022-08-17T02:29:57.109Z,19.49
2022-08-17T02:31:05.799Z,19.48
2022-08-17T02:32:08.848Z,19.47
2022-08-17T02:33:13.607Z,19.48
2022-08-17T02:34:15.804Z,19.46
2022-08-17T02:35:21.794Z,19.46
2022-08-17T02:36:27.315Z,19.42
2022-08-17T02:37:32.620Z,19.42
2022-08-17T02:38:34.537Z,19.41
2022-08-17T02:39:39.002Z,19.40
2022-08-17T02:40:40.825Z,19.39
2022-08-17T02:41:45.216Z,19.39
2022-08-17T02:42:47.109Z,19.39
2022-08-17T02:43:51.568Z,19.38
2022-08-17T02:44:53.649Z,19.38
2022-08-17T02:45:58.171Z,19.37
2022-08-17T02:47:00.093Z,19.37
2022-08-17T02:48:05.244Z,19.37
2022-08-17T02:49:07.053Z,19.36
2022-08-17T02:50:12.327Z,19.36
2022-08-17T02:51:14.280Z,19.35
2022-08-17T02:52:18.742Z,19.33
2022-08-17T02:53:40.792Z,19.34
2022-08-17T02:54:45.291Z,19.34
2022-08-17T02:55:47.132Z,19.32
2022-08-17T02:56:51.508Z,19.32
2022-08-17T02:57:53.338Z,19.33
2022-08-17T02:58:58.752Z,19.33
2022-08-17T03:00:00.653Z,19.33
2022-08-17T03:01:06.022Z,19.33
2022-08-17T03:02:08.384Z,19.33
2022-08-17T03:03:13.757Z,19.33
2022-08-17T03:04:15.538Z,19.33
2022-08-17T03:05:21.058Z,19.33
2022-08-17T03:06:22.977Z,19.33
2022-08-17T03:07:27.367Z,19.35
2022-08-17T03:08:29.383Z,19.35
2022-08-17T03:09:34.008Z,19.37
2022-08-17T03:10:35.861Z,19.40
2022-08-17T03:11:40.274Z,19.40
2022-08-17T03:12:43.377Z,19.42
2022-08-17T03:13:47.918Z,19.43
2022-08-17T03:14:49.811Z,19.44
2022-08-17T03:15:54.478Z,19.44
2022-08-17T03:16:56.263Z,19.45
2022-08-17T03:18:01.016Z,19.44
2022-08-17T03:19:02.869Z,19.43
2022-08-17T03:20:08.037Z,19.43
2022-08-17T03:21:13.348Z,19.44
2022-08-17T03:22:36.010Z,19.45
2022-08-17T03:23:41.277Z,19.46
2022-08-17T03:24:46.192Z,19.47
2022-08-17T03:25:49.859Z,19.47
2022-08-17T03:26:57.637Z,19.48
2022-08-17T03:27:59.456Z,19.48
2022-08-17T03:29:03.889Z,19.47
2022-08-17T03:30:06.129Z,19.49
2022-08-17T03:31:10.514Z,19.50
2022-08-17T03:32:13.323Z,19.49
2022-08-17T03:33:17.753Z,19.51
2022-08-17T03:34:19.920Z,19.53
2022-08-17T03:35:24.999Z,19.55
2022-08-17T03:36:29.427Z,19.56
2022-08-17T03:37:33.075Z,19.58
2022-08-17T03:38:39.392Z,19.59
2022-08-17T03:39:41.505Z,19.61
2022-08-17T03:40:57.225Z,19.62
2022-08-17T03:42:07.470Z,19.65
2022-08-17T03:43:12.443Z,19.68
2022-08-17T03:44:14.245Z,19.72
2022-08-17T03:45:40.145Z,19.76
2022-08-17T03:46:56.990Z,19.82
2022-08-17T03:48:13.887Z,19.87
2022-08-17T03:49:31.355Z,19.92
2022-08-17T03:50:59.819Z,19.97
2022-08-17T03:52:16.978Z,20.04
2022-08-17T03:53:33.809Z,20.09
2022-08-17T03:54:50.633Z,20.14
2022-08-17T03:56:07.583Z,20.13
2022-08-17T03:57:13.734Z,20.24
2022-08-17T03:58:15.530Z,20.30
2022-08-17T03:59:22.281Z,20.34
2022-08-17T04:00:24.505Z,20.41
2022-08-17T04:01:29.871Z,20.48
2022-08-17T04:02:34.938Z,20.54
2022-08-17T04:03:36.738Z,20.61
2022-08-17T04:04:41.412Z,20.68
2022-08-17T04:05:43.360Z,20.74
2022-08-17T04:06:48.010Z,20.82
2022-08-17T04:07:49.819Z,20.84
2022-08-17T04:08:54.282Z,20.96
2022-08-17T04:09:58.089Z,21.03
2022-08-17T04:11:03.030Z,21.06
2022-08-17T04:12:05.302Z,21.08
2022-08-17T04:13:09.884Z,21.07
2022-08-17T04:14:11.696Z,21.06
2022-08-17T04:15:16.238Z,21.04
2022-08-17T04:16:18.387Z,21.02
2022-08-17T04:17:23.118Z,20.98
2022-08-17T04:18:26.116Z,20.97
2022-08-17T04:19:30.514Z,20.95
2022-08-17T04:20:32.384Z,20.93
2022-08-17T04:21:37.199Z,20.91
2022-08-17T04:22:39.038Z,20.92
2022-08-17T04:23:43.487Z,20.91
2022-08-17T04:24:45.281Z,20.91
2022-08-17T04:25:51.299Z,20.91
2022-08-17T04:26:54.769Z,20.92
2022-08-17T04:27:59.666Z,20.93
2022-08-17T04:29:01.545Z,20.94
2022-08-17T04:30:07.080Z,20.96
2022-08-17T04:31:09.607Z,20.97
2022-08-17T04:32:14.540Z,20.99
2022-08-17T04:33:17.780Z,21.06
2022-08-17T04:34:23.055Z,21.69
2022-08-17T04:35:26.055Z,22.29
2022-08-17T04:36:30.609Z,22.79
2022-08-17T04:37:32.849Z,23.22
2022-08-17T04:38:37.973Z,23.63
2022-08-17T04:39:39.921Z,24.00
2022-08-17T04:40:56.924Z,24.32
2022-08-17T04:42:08.056Z,24.16
2022-08-17T04:43:18.861Z,23.79
2022-08-17T04:44:37.040Z,23.58
2022-08-17T04:45:40.901Z,24.30
2022-08-17T04:47:00.234Z,24.83
2022-08-17T04:48:02.057Z,25.08
2022-08-17T04:49:07.942Z,25.44
2022-08-17T04:50:09.922Z,25.70
2022-08-17T04:51:15.680Z,25.85
2022-08-17T04:52:32.348Z,25.90
2022-08-17T04:53:43.094Z,25.70
2022-08-17T04:54:47.570Z,25.35
2022-08-17T04:55:51.414Z,25.16
2022-08-17T04:56:55.843Z,25.07
2022-08-17T04:57:57.827Z,25.03
2022-08-17T04:59:03.451Z,24.99
2022-08-17T05:00:06.370Z,24.99
2022-08-17T05:01:10.951Z,24.98
2022-08-17T05:02:16.722Z,24.97
2022-08-17T05:03:18.636Z,24.95
2022-08-17T05:04:34.361Z,24.94
2022-08-17T05:05:38.227Z,24.90
2022-08-17T05:06:42.661Z,24.89
2022-08-17T05:07:44.453Z,24.89
2022-08-17T05:08:48.874Z,24.89
2022-08-17T05:09:50.792Z,24.90
2022-08-17T05:10:55.302Z,24.92
2022-08-17T05:12:02.926Z,24.92
2022-08-17T05:13:12.179Z,24.94
2022-08-17T05:14:16.649Z,24.93
2022-08-17T05:15:18.446Z,24.94
2022-08-17T05:16:24.411Z,24.96
2022-08-17T05:17:26.236Z,24.94
2022-08-17T05:18:31.028Z,24.94
2022-08-17T05:19:35.439Z,24.95
2022-08-17T05:20:39.489Z,24.97
2022-08-17T05:21:43.935Z,25.02
2022-08-17T05:22:51.269Z,25.04
2022-08-17T05:23:58.496Z,25.09
2022-08-17T05:25:01.887Z,25.12
2022-08-17T05:26:07.239Z,25.15
2022-08-17T05:27:12.853Z,25.21
2022-08-17T05:28:27.352Z,25.27
2022-08-17T05:29:35.222Z,25.32
2022-08-17T05:30:41.115Z,25.29
2022-08-17T05:31:45.504Z,25.42
2022-08-17T05:32:59.163Z,25.45
2022-08-17T05:34:03.583Z,25.51
2022-08-17T05:35:05.862Z,25.54
2022-08-17T05:36:11.326Z,25.59
2022-08-17T05:37:33.426Z,25.66
2022-08-17T05:38:38.116Z,25.72
2022-08-17T05:39:40.230Z,25.80
2022-08-17T05:40:44.694Z,25.86
2022-08-17T05:41:47.840Z,25.86
2022-08-17T05:42:52.773Z,25.95
2022-08-17T05:43:56.541Z,25.99
2022-08-17T05:45:01.283Z,25.97
2022-08-17T05:46:19.594Z,26.06
2022-08-17T05:47:21.514Z,26.07
2022-08-17T05:48:35.544Z,26.10
2022-08-17T05:49:44.658Z,26.09
2022-08-17T05:50:50.708Z,26.07
2022-08-17T05:52:24.602Z,26.09
2022-08-17T05:53:35.269Z,26.11
2022-08-17T05:54:47.140Z,26.15
2022-08-17T05:55:51.321Z,26.18
2022-08-17T05:57:03.068Z,26.19
2022-08-17T05:58:16.579Z,26.24
2022-08-17T05:59:29.299Z,26.26
2022-08-17T06:00:45.962Z,26.27
2022-08-17T06:01:58.754Z,26.41
2022-08-17T06:03:06.310Z,26.49
2022-08-17T06:04:22.233Z,26.59
2022-08-17T06:05:34.191Z,26.69
2022-08-17T06:06:50.518Z,26.75
2022-08-17T06:08:30.383Z,26.81
2022-08-17T06:09:40.112Z,26.90
2022-08-17T06:10:47.944Z,26.96
2022-08-17T06:12:14.478Z,26.97
2022-08-17T06:13:39.920Z,27.04
2022-08-17T06:14:47.537Z,27.15
2022-08-17T06:15:52.382Z,27.22
2022-08-17T06:17:02.547Z,27.29
2022-08-17T06:18:08.667Z,27.36
2022-08-17T06:19:13.207Z,27.41
2022-08-17T06:20:18.156Z,27.47
2022-08-17T06:21:20.115Z,27.50
2022-08-17T06:22:31.887Z,27.55
2022-08-17T06:23:38.174Z,27.60
2022-08-17T06:24:48.375Z,27.66
2022-08-17T06:25:51.306Z,27.71
2022-08-17T06:26:56.918Z,27.76
2022-08-17T06:28:02.407Z,27.85
2022-08-17T06:29:27.105Z,27.96
2022-08-17T06:30:58.446Z,28.16
2022-08-17T06:31:54.535Z,28.34
2022-08-17T06:33:02.901Z,28.46
2022-08-17T06:34:06.900Z,28.57
2022-08-17T06:35:12.536Z,28.60
2022-08-17T06:36:15.780Z,28.66
2022-08-17T06:37:32.772Z,28.64
2022-08-17T06:38:44.436Z,28.60
2022-08-17T06:39:47.393Z,28.53
2022-08-17T06:41:12.398Z,28.50
2022-08-17T06:43:02.136Z,28.48
2022-08-17T06:43:59.871Z,28.41
2022-08-17T06:45:04.586Z,28.38
2022-08-17T06:46:10.739Z,28.35
2022-08-17T06:47:15.690Z,28.38
2022-08-17T06:48:52.370Z,28.41
2022-08-17T06:50:05.596Z,28.50
2022-08-17T06:51:11.712Z,28.51
2022-08-17T06:52:42.226Z,28.48
2022-08-17T06:53:49.241Z,28.50
2022-08-17T06:55:18.829Z,28.57
2022-08-17T06:56:27.117Z,28.64
2022-08-17T06:57:56.764Z,28.78
2022-08-17T06:59:01.150Z,28.90
2022-08-17T07:00:10.326Z,29.02
2022-08-17T07:01:18.027Z,29.15
2022-08-17T07:02:29.394Z,29.23
2022-08-17T07:04:03.914Z,29.34
2022-08-17T07:05:09.073Z,29.38
2022-08-17T07:06:14.675Z,29.43
2022-08-17T07:07:31.527Z,29.46
2022-08-17T07:08:41.843Z,29.49
2022-08-17T07:09:44.254Z,29.52
2022-08-17T07:10:53.623Z,29.53
2022-08-17T07:11:59.374Z,29.53
2022-08-17T07:13:02.688Z,29.49
2022-08-17T07:14:17.518Z,29.45
2022-08-17T07:15:20.947Z,29.42
2022-08-17T07:16:31.333Z,29.41
2022-08-17T07:17:46.722Z,29.32
2022-08-17T07:18:53.193Z,29.20
2022-08-17T07:20:01.566Z,29.15
2022-08-17T07:21:08.505Z,29.11
2022-08-17T07:22:28.099Z,29.09
2022-08-17T07:23:38.697Z,29.07
2022-08-17T07:24:45.234Z,29.05
2022-08-17T07:25:47.824Z,29.07
2022-08-17T07:27:04.805Z,29.03
2022-08-17T07:28:09.496Z,29.05
2022-08-17T07:29:11.407Z,29.05
2022-08-17T07:30:40.078Z,29.07
2022-08-17T07:31:52.019Z,29.08
2022-08-17T07:33:13.216Z,29.10
2022-08-17T07:34:15.782Z,29.12
2022-08-17T07:35:41.044Z,29.13
2022-08-17T07:36:45.511Z,29.14
2022-08-17T07:37:54.243Z,29.09
2022-08-17T07:38:57.689Z,28.99
2022-08-17T07:40:15.947Z,28.89
2022-08-17T07:41:21.456Z,28.79
2022-08-17T07:42:23.325Z,28.68
2022-08-17T07:43:31.231Z,28.66
2022-08-17T07:44:33.385Z,28.64
2022-08-17T07:45:54.413Z,28.63
2022-08-17T07:47:11.379Z,28.62
2022-08-17T07:48:23.662Z,28.61
2022-08-17T07:49:34.354Z,28.59
2022-08-17T07:50:36.166Z,28.65
2022-08-17T07:51:48.012Z,28.72
2022-08-17T07:52:51.440Z,28.77
2022-08-17T07:54:22.351Z,28.85
2022-08-17T07:55:32.798Z,28.91
2022-08-17T07:56:40.684Z,28.98
2022-08-17T07:57:45.250Z,29.00
2022-08-17T07:58:49.055Z,28.99
2022-08-17T08:00:03.163Z,29.02
2022-08-17T08:01:18.594Z,29.08
2022-08-17T08:02:33.866Z,29.06
2022-08-17T08:03:43.859Z,29.14
2022-08-17T08:05:02.375Z,29.19
2022-08-17T08:06:08.079Z,29.23
2022-08-17T08:07:20.313Z,29.26
2022-08-17T08:08:25.476Z,29.37
2022-08-17T08:09:34.943Z,29.47
2022-08-17T08:10:45.462Z,29.54
2022-08-17T08:11:48.527Z,29.54
2022-08-17T08:12:54.763Z,29.50
2022-08-17T08:13:57.225Z,29.48
2022-08-17T08:15:30.269Z,29.39
2022-08-17T08:16:34.893Z,29.46
2022-08-17T08:18:01.015Z,29.52
2022-08-17T08:19:03.024Z,29.59
2022-08-17T08:20:35.017Z,29.61
2022-08-17T08:21:39.761Z,29.62
2022-08-17T08:22:46.807Z,29.66
2022-08-17T08:23:54.799Z,29.64
2022-08-17T08:25:03.517Z,29.63
2022-08-17T08:26:23.474Z,29.60
2022-08-17T08:27:31.630Z,29.53
2022-08-17T08:28:38.474Z,29.51
2022-08-17T08:29:58.348Z,29.53
2022-08-17T08:31:26.588Z,29.44
2022-08-17T08:32:34.195Z,29.40
2022-08-17T08:33:42.963Z,29.40
2022-08-17T08:35:07.212Z,29.29
2022-08-17T08:36:56.996Z,29.26
2022-08-17T08:37:53.157Z,28.94
2022-08-17T08:38:56.803Z,29.02
2022-08-17T08:40:07.549Z,28.94
2022-08-17T08:41:19.318Z,28.74
2022-08-17T08:42:25.091Z,28.73
2022-08-17T08:43:36.272Z,28.74
2022-08-17T08:45:00.113Z,28.78
2022-08-17T08:46:15.085Z,28.68
2022-08-17T08:47:46.621Z,28.51
2022-08-17T08:49:12.216Z,28.51
2022-08-17T08:50:38.126Z,28.74
2022-08-17T08:51:46.919Z,28.95
2022-08-17T08:53:03.565Z,29.02
2022-08-17T08:54:12.526Z,29.22
2022-08-17T08:55:16.942Z,29.37
2022-08-17T08:56:49.806Z,29.48
2022-08-17T08:58:32.272Z,29.79
2022-08-17T08:59:57.718Z,30.13
2022-08-17T09:01:02.888Z,30.32
2022-08-17T09:02:11.319Z,30.55
2022-08-17T09:03:50.927Z,30.70
2022-08-17T09:05:13.518Z,30.82
2022-08-17T09:06:39.366Z,30.92
2022-08-17T09:07:59.234Z,31.01
2022-08-17T09:09:01.422Z,31.10
2022-08-17T09:10:11.937Z,31.16
2022-08-17T09:11:13.784Z,31.22
2022-08-17T09:12:27.462Z,31.37
2022-08-17T09:13:32.055Z,31.51
2022-08-17T09:14:45.409Z,31.65
2022-08-17T09:15:57.379Z,31.84
2022-08-17T09:17:06.623Z,31.98
2022-08-17T09:19:00.772Z,32.03
2022-08-17T09:19:45.612Z,32.02
2022-08-17T09:21:06.712Z,31.93
2022-08-17T09:22:18.995Z,31.76
2022-08-17T09:23:35.621Z,31.49
2022-08-17T09:24:54.746Z,31.45
2022-08-17T09:26:15.691Z,31.36
2022-08-17T09:27:34.126Z,31.35
2022-08-17T09:28:39.614Z,31.24
2022-08-17T09:29:52.523Z,31.34
2022-08-17T09:31:02.544Z,31.40
2022-08-17T09:32:20.365Z,31.40
2022-08-17T09:33:26.183Z,31.48
2022-08-17T09:34:35.327Z,31.34
2022-08-17T09:35:45.136Z,31.31
2022-08-17T09:36:57.931Z,31.02
2022-08-17T09:38:07.123Z,30.85
2022-08-17T09:39:09.588Z,30.94
2022-08-17T09:40:21.753Z,30.91
2022-08-17T09:41:29.430Z,30.74
2022-08-17T09:42:41.143Z,30.68
2022-08-17T09:44:04.222Z,30.66
2022-08-17T09:45:27.574Z,30.60
2022-08-17T09:46:31.119Z,30.61
2022-08-17T09:47:40.704Z,30.57
2022-08-17T09:48:47.127Z,30.59
2022-08-17T09:49:50.044Z,30.61
2022-08-17T09:51:11.604Z,30.62
2022-08-17T09:52:26.780Z,30.62
2022-08-17T09:53:32.085Z,30.71
2022-08-17T09:54:39.615Z,30.75
2022-08-17T09:56:00.687Z,30.85
2022-08-17T09:57:32.181Z,30.74
2022-08-17T09:58:37.590Z,30.91
2022-08-17T09:59:45.721Z,30.99
2022-08-17T10:00:54.134Z,30.99
2022-08-17T10:01:59.610Z,31.05
2022-08-17T10:03:22.615Z,31.06
2022-08-17T10:04:43.242Z,31.01
2022-08-17T10:05:48.186Z,30.99
2022-08-17T10:07:01.058Z,30.89
2022-08-17T10:08:25.683Z,30.84
2022-08-17T10:09:40.920Z,30.86
2022-08-17T10:10:52.488Z,30.94
2022-08-17T10:12:30.175Z,31.05
2022-08-17T10:13:53.146Z,31.01
2022-08-17T10:15:17.452Z,30.87
2022-08-17T10:16:27.821Z,30.62
2022-08-17T10:17:38.321Z,30.71
2022-08-17T10:18:43.127Z,30.80
2022-08-17T10:20:07.841Z,30.87
2022-08-17T10:21:31.301Z,30.83
2022-08-17T10:22:53.236Z,30.77
2022-08-17T10:24:18.815Z,30.78
2022-08-17T10:25:53.649Z,30.73
2022-08-17T10:27:00.426Z,30.76
2022-08-17T10:28:05.736Z,30.82
2022-08-17T10:29:17.838Z,30.80
2022-08-17T10:30:21.203Z,30.88
2022-08-17T10:31:34.591Z,30.94
2022-08-17T10:32:49.028Z,31.01
2022-08-17T10:34:02.604Z,31.04
2022-08-17T10:35:25.703Z,31.20
2022-08-17T10:36:38.201Z,31.20
2022-08-17T10:37:42.756Z,31.06
2022-08-17T10:38:48.794Z,31.01
2022-08-17T10:39:57.453Z,30.90
2022-08-17T10:41:04.323Z,30.98
2022-08-17T10:42:13.994Z,30.99
2022-08-17T10:43:37.283Z,31.04
2022-08-17T10:44:49.967Z,31.00
2022-08-17T10:46:10.350Z,30.92
2022-08-17T10:47:20.187Z,30.94
2022-08-17T10:48:29.910Z,30.96
2022-08-17T10:49:36.011Z,31.04
2022-08-17T10:50:43.474Z,31.11
2022-08-17T10:51:49.204Z,31.22
2022-08-17T10:52:54.882Z,31.34
2022-08-17T10:53:57.322Z,31.46
2022-08-17T10:55:01.813Z,31.46
2022-08-17T10:56:12.807Z,31.67
2022-08-17T10:57:29.605Z,31.90
2022-08-17T10:58:32.028Z,32.14
2022-08-17T10:59:39.348Z,32.27
2022-08-17T11:00:41.216Z,32.26
2022-08-17T11:01:52.065Z,32.21
2022-08-17T11:02:57.613Z,32.03
2022-08-17T11:04:03.631Z,32.07
2022-08-17T11:05:28.679Z,32.14
2022-08-17T11:06:42.635Z,31.88
2022-08-17T11:07:53.578Z,31.98
2022-08-17T11:09:01.032Z,32.04
2022-08-17T11:10:24.701Z,31.98
2022-08-17T11:11:36.012Z,32.08
2022-08-17T11:13:01.242Z,32.19
2022-08-17T11:14:04.651Z,32.30
2022-08-17T11:15:17.912Z,32.39
2022-08-17T11:16:19.742Z,32.36
2022-08-17T11:17:35.303Z,32.41
2022-08-17T11:19:06.006Z,32.35
2022-08-17T11:20:10.716Z,32.43
2022-08-17T11:21:34.843Z,32.44
2022-08-17T11:22:39.613Z,32.37
2022-08-17T11:24:02.827Z,32.39
2022-08-17T11:25:15.290Z,32.44
2022-08-17T11:26:26.205Z,32.50
2022-08-17T11:27:31.959Z,32.57
2022-08-17T11:28:35.983Z,32.51
2022-08-17T11:29:41.843Z,32.47
2022-08-17T11:30:47.118Z,32.43
2022-08-17T11:32:05.542Z,32.35
2022-08-17T11:33:26.151Z,32.39
2022-08-17T11:34:31.083Z,32.30
2022-08-17T11:35:40.163Z,32.31
2022-08-17T11:36:50.387Z,32.29
2022-08-17T11:38:16.472Z,32.12
2022-08-17T11:39:27.899Z,31.87
2022-08-17T11:40:35.499Z,31.87
2022-08-17T11:41:40.383Z,31.56
2022-08-17T11:43:14.173Z,31.61
2022-08-17T11:44:19.125Z,31.74
2022-08-17T11:45:40.389Z,31.75
2022-08-17T11:47:20.450Z,31.82
2022-08-17T11:48:51.643Z,32.00
2022-08-17T11:50:27.835Z,32.16
2022-08-17T11:51:51.113Z,32.46
2022-08-17T11:52:55.908Z,32.56
2022-08-17T11:54:30.698Z,32.76
2022-08-17T11:55:39.586Z,32.97
2022-08-17T11:56:46.421Z,33.16
2022-08-17T11:58:01.811Z,33.33
2022-08-17T11:59:05.780Z,33.49
2022-08-17T12:00:11.418Z,33.60
2022-08-17T12:01:22.689Z,33.70
2022-08-17T12:02:31.659Z,33.78
2022-08-17T12:03:37.668Z,33.68
2022-08-17T12:04:42.237Z,33.61
2022-08-17T12:05:44.082Z,33.59
2022-08-17T12:06:49.979Z,33.60
2022-08-17T12:07:52.226Z,33.59
2022-08-17T12:09:03.757Z,33.60
2022-08-17T12:10:07.711Z,33.61
2022-08-17T12:11:57.795Z,33.63
2022-08-17T12:12:46.765Z,33.37
2022-08-17T12:13:50.117Z,33.37
2022-08-17T12:15:10.632Z,33.32
2022-08-17T12:16:15.297Z,33.10
2022-08-17T12:17:41.639Z,32.89
2022-08-17T12:18:52.773Z,32.87
2022-08-17T12:19:55.772Z,32.79
2022-08-17T12:21:16.301Z,32.63
2022-08-17T12:22:32.972Z,32.53
2022-08-17T12:23:35.314Z,32.41
2022-08-17T12:24:45.750Z,32.36
2022-08-17T12:25:49.476Z,32.31
2022-08-17T12:26:58.707Z,32.42
2022-08-17T12:28:05.500Z,32.55
2022-08-17T12:29:18.277Z,32.68
2022-08-17T12:30:40.145Z,32.78
2022-08-17T12:31:49.189Z,32.84
2022-08-17T12:32:53.910Z,32.94
2022-08-17T12:33:55.865Z,33.06
2022-08-17T12:35:00.404Z,33.17
2022-08-17T12:36:03.590Z,33.31
2022-08-17T12:37:09.946Z,33.42
2022-08-17T12:38:32.546Z,33.54
2022-08-17T12:39:37.419Z,33.75
2022-08-17T12:40:39.297Z,33.94
2022-08-17T12:41:45.298Z,34.14
2022-08-17T12:43:00.841Z,34.29
2022-08-17T12:44:04.673Z,34.46
2022-08-17T12:45:10.378Z,34.48
2022-08-17T12:46:17.899Z,34.40
2022-08-17T12:47:23.761Z,34.43
2022-08-17T12:48:26.674Z,34.36
2022-08-17T12:49:38.737Z,34.33
2022-08-17T12:50:44.991Z,34.20
2022-08-17T12:51:47.150Z,34.18
2022-08-17T12:52:51.543Z,34.09
2022-08-17T12:54:01.297Z,34.08
2022-08-17T12:55:16.250Z,34.01
2022-08-17T12:56:19.719Z,33.90
2022-08-17T12:57:33.495Z,33.82
2022-08-17T12:58:36.794Z,33.74
2022-08-17T12:59:45.751Z,33.57
2022-08-17T13:00:52.302Z,33.46
2022-08-17T13:01:54.170Z,33.34
2022-08-17T13:03:03.418Z,33.14
2022-08-17T13:04:06.648Z,33.08
2022-08-17T13:05:17.417Z,32.97
2022-08-17T13:06:32.197Z,32.84
2022-08-17T13:07:44.873Z,32.68
2022-08-17T13:08:48.023Z,32.58
2022-08-17T13:09:53.545Z,32.51
2022-08-17T13:10:59.502Z,32.38
2022-08-17T13:12:01.408Z,32.22
2022-08-17T13:13:06.731Z,32.11
2022-08-17T13:14:09.924Z,31.99
2022-08-17T13:15:31.298Z,31.91
2022-08-17T13:16:33.480Z,31.74
2022-08-17T13:17:38.608Z,31.63
2022-08-17T13:18:49.246Z,31.49
2022-08-17T13:19:51.346Z,31.42
2022-08-17T13:20:56.043Z,31.37
2022-08-17T13:21:59.086Z,31.28
2022-08-17T13:23:07.521Z,31.25
2022-08-17T13:24:21.554Z,31.16
2022-08-17T13:25:26.408Z,31.24
2022-08-17T13:26:30.115Z,31.14
2022-08-17T13:27:35.050Z,31.23
2022-08-17T13:28:37.736Z,31.28
2022-08-17T13:29:44.271Z,31.26
2022-08-17T13:30:48.701Z,31.21
2022-08-17T13:31:56.636Z,31.27
2022-08-17T13:33:08.774Z,31.28
2022-08-17T13:34:13.901Z,31.34
2022-08-17T13:35:35.389Z,31.39
2022-08-17T13:36:42.157Z,31.45
2022-08-17T13:38:04.095Z,31.54
2022-08-17T13:39:10.086Z,31.68
2022-08-17T13:40:11.990Z,31.78
2022-08-17T13:41:33.687Z,31.92
2022-08-17T13:42:51.629Z,31.96
2022-08-17T13:43:57.024Z,32.05
2022-08-17T13:44:59.368Z,32.07
2022-08-17T13:46:10.744Z,32.22
2022-08-17T13:47:22.173Z,32.33
2022-08-17T13:48:30.135Z,32.48
2022-08-17T13:49:41.889Z,32.65
2022-08-17T13:50:59.649Z,32.87
2022-08-17T13:52:05.031Z,33.08
2022-08-17T13:53:41.897Z,33.24
2022-08-17T13:54:46.324Z,33.45
2022-08-17T13:55:52.489Z,33.64
2022-08-17T13:57:01.115Z,33.82
2022-08-17T13:58:04.219Z,33.98
2022-08-17T13:59:14.311Z,34.13
2022-08-17T14:00:20.638Z,34.23
2022-08-17T14:01:46.575Z,34.23
2022-08-17T14:02:54.026Z,34.00
2022-08-17T14:03:56.255Z,33.89
2022-08-17T14:05:02.170Z,33.56
2022-08-17T14:06:08.331Z,33.32
2022-08-17T14:07:13.077Z,33.19
2022-08-17T14:08:17.887Z,32.92
2022-08-17T14:09:20.423Z,32.85
2022-08-17T14:10:26.189Z,32.56
2022-08-17T14:11:28.128Z,32.43
2022-08-17T14:12:34.063Z,32.31
2022-08-17T14:13:36.617Z,32.19
2022-08-17T14:14:43.109Z,32.10
2022-08-17T14:15:54.662Z,31.97
2022-08-17T14:17:00.930Z,31.91
2022-08-17T14:18:02.755Z,31.85
2022-08-17T14:19:07.455Z,31.48
2022-08-17T14:20:13.015Z,31.51
2022-08-17T14:21:14.988Z,31.33
2022-08-17T14:22:30.564Z,31.23
2022-08-17T14:23:33.010Z,31.13
2022-08-17T14:24:43.945Z,31.08
2022-08-17T14:25:47.051Z,31.03
2022-08-17T14:26:52.982Z,30.90
2022-08-17T14:27:57.877Z,30.82
2022-08-17T14:29:00.030Z,30.80
2022-08-17T14:30:07.850Z,30.73
2022-08-17T14:31:13.118Z,30.73
2022-08-17T14:32:17.374Z,30.71
2022-08-17T14:33:22.736Z,30.69
2022-08-17T14:34:24.982Z,30.66
2022-08-17T14:35:30.231Z,30.62
2022-08-17T14:36:32.257Z,30.62
2022-08-17T14:37:36.711Z,30.63
2022-08-17T14:38:41.181Z,30.59
2022-08-17T14:39:43.059Z,30.57
2022-08-17T14:40:47.663Z,30.56
2022-08-17T14:41:49.556Z,30.53
2022-08-17T14:42:54.280Z,30.51
2022-08-17T14:43:56.137Z,30.53
2022-08-17T14:45:04.576Z,30.46
2022-08-17T14:46:06.460Z,30.54
2022-08-17T14:47:14.911Z,30.54
2022-08-17T14:48:16.807Z,30.51
2022-08-17T14:49:21.351Z,30.51
2022-08-17T14:50:23.219Z,30.49